Mansfield, Pennsylvania
Current Conditions -  °F | °C
As of 6:55 PM on Friday 24 Oct 2014 (Local Time) from KN38 Reporting Station
Clear Clear  
Wind Chill: 54°   Ceiling: Unl
Heat Index: 54°   Visibility: 10mi
Dew Point: 28°   Wind: 5mph
Humidity: 38%   Direction: 310°NW
Pressure: 29.94"   Gusts: NA
Location:  41.81°N, 77.08°W
Report Text: KN38 242255Z AUTO 31004KT 10SM CLR 12/M02 A2994 RMK AO2
Loading
Personal Weather Stations






























Interactive Weather Map
Tropical Storm Tracking
New forecast layout! Learn more

10-Day Weather Forecast

Advertisements
Track Severe Weather on mobile